Time;durP1;ratioP1;P1;durP2;ratioP2;P2;SDS_P1;SDS_P2;PMS_P1;PMS_P2;Temp;Humidity;BMP_temperature;BMP_pressure;BME280_temperature;BME280_humidity;BME280_pressure;Samples;Min_cycle;Max_cycle;Signal;HPM_P1;HPM_P2
2021/03/01 00:01:02;;;;;;;20.60;12.67;;;4.30;69.40;;;3.03;64.08;99848.28;5113803;28;20524;-85
2021/03/01 00:03:29;;;;;;;21.17;13.07;;;4.30;69.50;;;3.09;63.92;99855.56;5114242;28;20397;-84
2021/03/01 00:05:55;;;;;;;24.05;13.38;;;4.30;69.50;;;3.10;63.98;99851.97;5115554;28;20422;-86
2021/03/01 00:08:22;;;;;;;23.48;14.27;;;4.30;69.50;;;3.10;63.92;99855.41;5116753;28;20409;-86
2021/03/01 00:10:48;;;;;;;19.33;12.25;;;4.40;69.10;;;3.16;63.54;99851.41;5117351;28;20481;-86
2021/03/01 00:13:15;;;;;;;21.83;12.20;;;4.40;68.90;;;3.24;63.46;99845.44;5117602;28;20386;-86
2021/03/01 00:15:41;;;;;;;23.30;12.85;;;4.50;68.70;;;3.24;62.97;99848.91;5097544;28;20429;-86
2021/03/01 00:18:09;;;;;;;19.23;11.95;;;4.50;68.60;;;3.19;63.12;99850.31;5106368;28;20426;-86
2021/03/01 00:20:35;;;;;;;19.63;12.43;;;4.50;68.50;;;3.17;63.28;99847.81;5111851;28;20469;-86
2021/03/01 00:23:02;;;;;;;22.08;12.68;;;4.40;68.60;;;3.16;63.39;99854.00;5117466;28;20441;-86
2021/03/01 00:25:28;;;;;;;20.73;11.98;;;4.40;68.60;;;3.13;63.65;99846.47;5117175;28;20422;-85
2021/03/01 00:27:54;;;;;;;18.83;12.27;;;4.40;68.90;;;3.07;63.82;99857.50;5106969;28;20996;-86
2021/03/01 00:30:22;;;;;;;21.13;11.68;;;4.40;69.00;;;3.05;63.92;99862.88;5106128;28;20695;-87
2021/03/01 00:32:48;;;;;;;20.35;12.10;;;4.30;69.30;;;3.00;64.10;99862.50;5106125;28;20441;-84
2021/03/01 00:35:16;;;;;;;20.85;12.20;;;4.30;69.40;;;2.99;64.00;99865.25;5109231;28;20478;-84
2021/03/01 00:37:42;;;;;;;21.90;12.13;;;4.30;69.40;;;2.94;64.23;99872.69;5109685;28;20452;-86
2021/03/01 00:40:10;;;;;;;20.48;12.57;;;4.30;69.50;;;2.98;64.07;99863.59;5111348;28;20402;-85
2021/03/01 00:42:36;;;;;;;19.58;12.40;;;4.20;69.70;;;3.11;63.71;99862.31;5096961;28;20409;-85
2021/03/01 00:45:05;;;;;;;21.02;12.20;;;4.30;69.30;;;3.16;63.78;99853.22;5114244;28;20426;-85
2021/03/01 00:47:32;;;;;;;21.10;12.30;;;4.40;69.00;;;3.06;63.74;99861.91;5112657;28;20441;-84
2021/03/01 00:49:58;;;;;;;21.10;11.90;;;4.30;69.10;;;2.82;64.81;99858.13;5110958;28;20445;-84
2021/03/01 00:52:25;;;;;;;18.47;12.43;;;4.20;69.70;;;2.83;65.04;99857.16;5092644;28;20444;-86
2021/03/01 00:54:51;;;;;;;22.55;12.45;;;4.10;70.40;;;2.80;65.01;99862.66;5109994;28;20394;-86
2021/03/01 00:57:18;;;;;;;24.38;13.30;;;4.10;70.50;;;2.68;65.16;99860.22;5112314;28;20409;-86
2021/03/01 00:59:44;;;;;;;23.17;13.25;;;4.00;70.60;;;2.69;65.38;99859.25;5112078;28;20418;-86
2021/03/01 01:02:10;;;;;;;25.23;12.75;;;4.00;70.80;;;2.62;65.47;99855.56;5109403;28;20422;-86
2021/03/01 01:04:37;;;;;;;21.95;12.35;;;4.00;71.00;;;2.57;65.78;99855.13;5109228;28;20447;-86
2021/03/01 01:07:03;;;;;;;20.50;12.35;;;3.90;71.20;;;2.47;66.25;99849.09;5110417;28;20422;-85
2021/03/01 01:09:30;;;;;;;20.10;12.25;;;3.80;71.60;;;2.38;66.41;99849.94;5110109;28;20435;-86
2021/03/01 01:11:56;;;;;;;22.00;13.07;;;3.70;72.00;;;2.41;66.74;99856.66;5109228;28;20409;-87
2021/03/01 01:14:23;;;;;;;21.73;13.57;;;3.70;72.30;;;2.37;66.76;99850.06;5109284;28;20582;-86
2021/03/01 01:16:49;;;;;;;21.95;13.50;;;3.60;72.30;;;2.32;67.07;99856.53;5089709;28;20422;-85
2021/03/01 01:19:15;;;;;;;23.77;13.13;;;3.70;72.60;;;2.32;66.73;99858.31;5088880;28;20414;-86
2021/03/01 01:21:41;;;;;;;20.98;13.35;;;3.60;72.50;;;2.31;66.79;99849.66;5105389;28;20441;-86
2021/03/01 01:24:08;;;;;;;19.75;11.95;;;3.60;72.50;;;2.22;67.11;99850.47;5105324;28;20432;-86
2021/03/01 01:26:35;;;;;;;23.67;13.90;;;3.60;72.70;;;2.27;67.12;99857.88;5088473;28;20507;-86
2021/03/01 01:29:02;;;;;;;20.40;12.95;;;3.60;72.90;;;2.34;67.12;99857.19;5106976;28;20428;-86
2021/03/01 01:31:28;;;;;;;22.35;12.98;;;3.60;72.70;;;2.46;66.52;99855.28;5106744;28;20448;-86
2021/03/01 01:33:54;;;;;;;24.25;13.82;;;3.70;72.50;;;2.35;66.89;99850.19;5106346;28;20412;-86
2021/03/01 01:36:20;;;;;;;21.60;13.10;;;3.70;72.40;;;2.28;67.08;99841.25;5106523;28;20517;-86
2021/03/01 01:38:48;;;;;;;23.15;13.20;;;3.60;72.70;;;2.25;67.33;99854.63;5106149;28;20588;-86
2021/03/01 01:41:15;;;;;;;25.57;14.40;;;3.60;72.90;;;2.38;67.09;99849.09;5105187;28;20414;-86
2021/03/01 01:43:42;;;;;;;22.73;14.23;;;3.60;72.90;;;2.50;66.28;99851.41;5106743;28;20406;-86
2021/03/01 01:46:08;;;;;;;23.52;13.90;;;3.70;72.40;;;2.62;65.30;99847.72;5106183;28;20413;-86
2021/03/01 01:48:35;;;;;;;24.60;14.20;;;3.80;71.00;;;2.50;66.39;99847.97;5106932;28;20405;-86
2021/03/01 01:51:01;;;;;;;23.10;13.82;;;3.80;71.70;;;2.42;66.37;99859.13;5106172;28;20405;-85
2021/03/01 01:53:27;;;;;;;21.48;12.52;;;3.70;71.70;;;2.57;65.40;99856.91;5105904;28;20398;-86
2021/03/01 01:55:55;;;;;;;20.63;12.05;;;3.80;71.40;;;2.61;64.71;99848.66;5106999;28;20409;-86
2021/03/01 01:58:21;;;;;;;17.85;11.63;;;3.90;70.60;;;2.72;64.15;99850.28;5105937;28;20417;-85
2021/03/01 02:00:48;;;;;;;20.90;12.55;;;3.90;69.70;;;2.80;64.08;99854.81;5107997;28;20386;-86
2021/03/01 02:03:45;;;;;;;20.83;12.15;;;4.00;69.50;;;2.78;63.94;99846.31;5108897;28;20404;-86
2021/03/01 02:06:30;;;;;;;22.75;12.43;;;4.00;69.30;;;3.01;63.01;99831.91;5057924;28;20437;-86
2021/03/01 02:09:16;;;;;;;20.73;12.18;;;4.10;69.20;;;3.03;63.19;99836.03;5103684;28;20410;-86
2021/03/01 02:11:57;;;;;;;20.30;11.90;;;4.20;68.70;;;2.85;63.81;99847.38;5103295;28;20420;-86
2021/03/01 02:14:35;;;;;;;23.60;12.50;;;4.20;69.00;;;2.52;64.58;99835.59;5104000;28;20466;-87
2021/03/01 02:17:02;;;;;;;21.55;12.45;;;3.90;69.50;;;2.15;66.62;99836.31;5103678;28;20409;-86
2021/03/01 02:19:30;;;;;;;24.10;12.27;;;3.60;71.50;;;2.07;66.80;99825.72;5104041;28;20516;-85
2021/03/01 02:21:57;;;;;;;24.90;13.32;;;3.50;72.30;;;2.03;67.24;99828.75;5103509;28;20441;-85
2021/03/01 02:24:31;;;;;;;23.30;13.05;;;3.40;72.90;;;1.88;67.87;99826.50;5103303;28;20464;-87
2021/03/01 02:26:58;;;;;;;21.65;12.82;;;3.30;73.30;;;1.80;68.28;99823.78;5092003;28;20444;-85
2021/03/01 02:29:27;;;;;;;26.20;13.50;;;3.20;73.90;;;1.83;68.35;99830.50;5112381;28;20406;-86
2021/03/01 02:31:57;;;;;;;21.33;13.02;;;3.20;74.20;;;1.80;68.67;99822.97;5112102;28;20417;-86
2021/03/01 02:34:31;;;;;;;22.33;13.10;;;3.10;74.40;;;1.87;68.53;99832.72;5109353;28;20425;-86
2021/03/01 02:37:02;;;;;;;21.42;12.73;;;3.20;74.40;;;1.93;68.25;99832.19;5107770;28;20425;-86
2021/03/01 02:39:32;;;;;;;22.55;12.95;;;3.20;74.00;;;2.03;67.47;99826.16;5104259;28;20402;-86
2021/03/01 02:42:00;;;;;;;21.52;12.60;;;3.30;73.70;;;1.90;67.99;99824.59;5105390;28;20433;-87
2021/03/01 02:44:27;;;;;;;21.15;13.13;;;3.30;73.60;;;1.74;68.77;99820.84;5104642;28;20426;-87
2021/03/01 02:46:54;;;;;;;21.52;12.95;;;3.10;74.20;;;1.65;69.11;99827.75;5104426;28;20414;-87
2021/03/01 02:49:20;;;;;;;21.53;13.30;;;3.00;74.60;;;1.59;69.10;99817.81;5105385;28;20478;-87
2021/03/01 02:51:50;;;;;;;23.67;12.85;;;3.00;74.90;;;1.54;69.54;99820.84;5105431;28;20443;-87
2021/03/01 02:54:20;;;;;;;24.07;13.33;;;2.90;75.20;;;1.51;69.38;99821.09;5106256;28;20491;-86
2021/03/01 02:56:48;;;;;;;22.83;13.23;;;2.90;75.30;;;1.47;69.80;99819.72;5104762;28;20488;-86
2021/03/01 02:59:15;;;;;;;23.52;12.77;;;2.80;75.30;;;1.49;69.65;99817.81;5104493;28;20413;-87
2021/03/01 03:01:42;;;;;;;21.55;13.55;;;2.80;75.40;;;1.45;69.62;99819.03;5105281;28;20661;-87
2021/03/01 03:04:09;;;;;;;22.85;13.40;;;2.80;75.50;;;1.50;69.49;99808.19;5086885;28;20487;-87
2021/03/01 03:06:37;;;;;;;24.30;13.25;;;2.80;75.50;;;1.39;69.55;99809.13;5088197;28;20544;-85
2021/03/01 03:09:08;;;;;;;22.67;12.70;;;2.80;75.40;;;1.54;69.23;99820.00;5107573;28;20820;-86
2021/03/01 03:11:39;;;;;;;21.67;13.20;;;2.80;75.40;;;1.59;69.16;99814.38;5088518;28;20555;-87
2021/03/01 03:14:08;;;;;;;24.05;13.18;;;2.90;75.20;;;1.49;69.59;99817.81;5105320;28;20394;-87
2021/03/01 03:16:35;;;;;;;23.02;13.77;;;2.90;75.30;;;1.43;69.69;99814.88;5104564;28;20421;-86
2021/03/01 03:19:03;;;;;;;22.17;13.30;;;2.80;75.50;;;1.42;69.66;99819.31;5104957;28;20406;-87
2021/03/01 03:21:29;;;;;;;23.35;13.73;;;2.80;75.70;;;1.41;69.81;99815.03;5104579;28;20414;-87
2021/03/01 03:23:55;;;;;;;23.48;14.25;;;2.70;75.60;;;1.38;69.73;99811.84;5105038;28;20521;-86
2021/03/01 03:26:22;;;;;;;22.27;13.23;;;2.70;75.70;;;1.27;70.13;99806.75;5104654;28;20815;-87
2021/03/01 03:28:49;;;;;;;26.52;14.10;;;2.60;75.90;;;1.37;70.05;99810.19;5103606;28;20406;-86
2021/03/01 03:31:16;;;;;;;21.38;12.63;;;2.70;76.10;;;1.42;69.69;99813.25;5103325;28;20418;-87
2021/03/01 03:33:43;;;;;;;27.57;14.37;;;2.70;75.70;;;1.33;70.01;99804.44;5105232;28;20470;-86
2021/03/01 03:36:12;;;;;;;22.90;14.02;;;2.70;75.80;;;1.33;69.55;99811.44;5102597;28;20711;-86
2021/03/01 03:38:46;;;;;;;23.57;14.30;;;2.70;75.80;;;1.31;69.60;99808.97;5102936;28;20409;-88
2021/03/01 03:41:14;;;;;;;23.38;13.57;;;2.60;75.90;;;1.31;69.50;99813.34;5103660;28;20426;-88
2021/03/01 03:43:44;;;;;;;23.17;13.48;;;2.60;75.70;;;1.33;69.74;99809.66;5104512;28;20581;-88
2021/03/01 03:46:13;;;;;;;21.42;14.05;;;2.70;75.70;;;1.38;69.27;99812.69;5108782;28;20487;-88
2021/03/01 03:48:42;;;;;;;23.83;14.05;;;2.70;75.50;;;1.45;69.05;99810.38;5104998;28;20408;-87
2021/03/01 03:51:12;;;;;;;23.23;13.13;;;2.70;75.30;;;1.40;68.87;99816.00;5104417;28;20416;-88
2021/03/01 03:53:43;;;;;;;24.17;13.70;;;2.80;75.00;;;1.44;68.99;99812.16;5102707;28;20517;-88
2021/03/01 03:56:11;;;;;;;28.30;13.10;;;2.80;75.10;;;1.35;69.48;99799.09;5106462;28;20560;-87
2021/03/01 03:58:45;;;;;;;23.90;13.07;;;2.70;75.20;;;1.40;69.35;99808.16;5085665;28;20418;-88
2021/03/01 04:01:14;;;;;;;20.52;12.75;;;2.70;75.30;;;1.43;69.51;99809.66;5103633;28;20410;-88
2021/03/01 04:03:45;;;;;;;20.73;13.00;;;2.70;75.50;;;1.35;69.73;99806.91;5103974;28;20520;-87
2021/03/01 04:06:14;;;;;;;22.20;13.48;;;2.70;75.50;;;1.26;70.35;99815.53;5103191;28;20425;-87
2021/03/01 04:08:41;;;;;;;22.42;13.48;;;2.60;75.90;;;1.28;70.35;99811.03;5111842;28;20410;-87
2021/03/01 04:11:09;;;;;;;25.13;13.35;;;2.60;76.10;;;1.23;70.28;99807.97;5116479;28;20406;-86
2021/03/01 04:13:36;;;;;;;22.35;13.13;;;2.60;76.30;;;1.16;70.61;99803.28;5115319;28;20414;-87
2021/03/01 04:16:03;;;;;;;23.98;13.75;;;2.50;76.50;;;1.15;70.71;99803.41;5113353;28;20409;-87
2021/03/01 04:18:35;;;;;;;22.63;13.68;;;2.50;76.80;;;1.14;71.03;99806.97;5113231;28;20423;-87
2021/03/01 04:21:06;;;;;;;21.55;13.50;;;2.50;77.00;;;1.24;70.70;99810.44;5114432;28;20410;-87
2021/03/01 04:23:35;;;;;;;21.52;13.68;;;2.50;76.70;;;1.39;70.13;99808.28;5110433;28;20410;-85
2021/03/01 04:26:04;;;;;;;20.00;11.40;;;2.70;76.40;;;1.52;67.84;99812.31;5103951;28;20425;-85
2021/03/01 04:28:32;;;;;;;19.00;11.88;;;2.80;74.40;;;1.64;67.17;99812.22;5099528;28;20494;-86
2021/03/01 04:31:03;;;;;;;21.27;11.32;;;2.90;73.40;;;1.71;66.90;99805.47;5081412;28;20942;-86
2021/03/01 04:33:32;;;;;;;24.50;11.70;;;3.00;73.10;;;1.78;66.54;99815.25;5100689;28;20421;-85
2021/03/01 04:36:00;;;;;;;20.90;11.50;;;3.10;72.70;;;1.99;65.82;99809.91;5100791;28;20476;-85
2021/03/01 04:38:26;;;;;;;21.50;12.23;;;3.20;72.00;;;1.91;65.87;99813.19;5100568;28;20729;-85
2021/03/01 04:40:54;;;;;;;21.90;12.43;;;3.20;71.70;;;1.90;66.23;99808.94;5102219;28;20440;-86
2021/03/01 04:43:22;;;;;;;22.50;12.32;;;3.10;72.20;;;1.86;66.49;99810.19;5101439;28;20448;-85
2021/03/01 04:45:51;;;;;;;28.77;13.15;;;3.20;72.30;;;1.55;67.56;99819.06;5102940;28;20426;-87
2021/03/01 04:48:18;;;;;;;26.67;12.70;;;3.00;73.00;;;1.18;69.24;99816.19;5099832;28;20475;-84
2021/03/01 04:50:49;;;;;;;23.95;12.75;;;2.60;74.40;;;1.07;69.97;99821.50;5084105;28;20444;-86
2021/03/01 04:53:16;;;;;;;22.50;12.57;;;2.50;75.50;;;1.00;70.42;99823.78;5110258;28;20459;-82
2021/03/01 04:55:43;;;;;;;22.83;12.93;;;2.30;76.50;;;0.94;71.01;99818.28;5114720;28;20406;-81
2021/03/01 04:58:11;;;;;;;24.98;14.15;;;2.30;76.90;;;0.92;71.11;99814.97;5110594;28;20424;-87
2021/03/01 05:00:37;;;;;;;21.95;12.60;;;2.30;77.00;;;0.94;70.96;99821.72;5095557;28;20416;-86
2021/03/01 05:03:06;;;;;;;21.65;12.27;;;2.30;76.90;;;0.94;70.83;99819.09;5112692;28;20430;-86
2021/03/01 05:05:34;;;;;;;20.40;12.95;;;2.30;76.90;;;0.96;70.76;99819.00;5112531;28;20425;-85
2021/03/01 05:08:07;;;;;;;27.58;13.70;;;2.30;77.00;;;0.90;71.14;99819.50;5105342;28;20850;-85
2021/03/01 05:10:35;;;;;;;25.90;12.60;;;2.20;77.20;;;0.92;71.42;99828.00;5101398;28;20405;-86
2021/03/01 05:13:01;;;;;;;27.33;13.57;;;2.20;77.40;;;0.91;71.20;99823.75;5096979;28;20433;-85
2021/03/01 05:15:27;;;;;;;23.08;12.77;;;2.20;77.40;;;0.95;71.02;99828.59;5098765;28;20424;-83
2021/03/01 05:17:54;;;;;;;21.53;13.07;;;2.30;77.40;;;1.08;70.67;99823.16;5098652;28;20513;-86
2021/03/01 05:20:20;;;;;;;23.50;13.73;;;2.40;77.20;;;1.03;70.96;99831.38;5098651;28;20434;-85
2021/03/01 05:22:46;;;;;;;22.83;13.13;;;2.40;77.00;;;1.04;71.16;99825.22;5097633;28;20398;-86
2021/03/01 05:25:14;;;;;;;25.55;14.35;;;2.40;76.90;;;1.17;70.33;99828.41;5099138;28;20432;-84
2021/03/01 05:27:41;;;;;;;25.15;13.27;;;2.50;76.40;;;1.27;69.84;99830.25;5099772;28;20809;-85
2021/03/01 05:30:10;;;;;;;23.20;12.88;;;2.60;75.90;;;1.32;69.63;99831.47;5083897;28;20432;-82
2021/03/01 05:32:37;;;;;;;29.33;13.85;;;2.60;75.90;;;1.42;69.45;99828.91;5109796;28;20543;-86
2021/03/01 05:35:05;;;;;;;23.80;12.48;;;2.70;75.40;;;1.62;68.49;99833.22;5116397;28;20394;-85
2021/03/01 05:37:31;;;;;;;26.42;13.57;;;2.80;74.80;;;1.71;67.62;99829.81;5115758;28;20437;-83
2021/03/01 05:39:58;;;;;;;23.95;13.95;;;3.00;74.00;;;1.32;68.98;99833.25;5115711;28;20409;-86
2021/03/01 05:42:27;;;;;;;27.23;13.55;;;2.80;74.40;;;1.06;70.05;99827.66;5097833;28;20418;-84
2021/03/01 05:44:54;;;;;;;26.40;13.98;;;2.50;75.80;;;0.85;71.46;99830.31;5111744;28;20422;-85
2021/03/01 05:47:22;;;;;;;27.15;13.02;;;2.30;77.00;;;0.88;71.08;99831.84;5083893;28;20640;-86
2021/03/01 05:49:49;;;;;;;24.30;13.05;;;2.20;77.30;;;0.89;71.20;99833.50;5100280;28;20420;-85
2021/03/01 05:52:19;;;;;;;27.38;13.18;;;2.20;77.20;;;0.85;71.68;99825.09;5103326;28;20433;-86
2021/03/01 05:54:46;;;;;;;29.08;14.55;;;2.20;77.40;;;0.90;71.36;99827.34;5103749;28;20795;-86
2021/03/01 05:57:13;;;;;;;24.55;14.02;;;2.20;77.40;;;1.03;71.00;99831.38;5102848;28;20394;-82
2021/03/01 05:59:41;;;;;;;24.55;13.30;;;2.30;77.30;;;1.07;70.59;99827.53;5099788;28;20529;-84
2021/03/01 06:02:08;;;;;;;24.13;13.90;;;2.40;76.60;;;0.97;70.83;99826.69;5081657;28;20473;-87
2021/03/01 06:04:38;;;;;;;25.88;13.80;;;2.30;76.90;;;0.78;71.95;99832.59;5100742;28;20406;-87
2021/03/01 06:07:04;;;;;;;26.03;13.80;;;2.10;77.60;;;0.84;71.70;99830.44;5098239;28;20406;-86
2021/03/01 06:09:30;;;;;;;25.00;13.93;;;2.20;77.70;;;0.93;71.48;99840.91;5100237;28;20742;-87
2021/03/01 06:11:56;;;;;;;33.20;15.88;;;2.20;77.60;;;0.99;71.27;99837.78;5099052;28;20405;-87
2021/03/01 06:14:23;;;;;;;34.15;17.67;;;2.30;77.30;;;1.00;70.96;99849.03;5098925;28;20420;-86
2021/03/01 06:17:15;;;;;;;36.42;18.10;;;2.30;77.40;;;1.15;70.73;99851.19;5084465;28;20415;-86
2021/03/01 06:19:50;;;;;;;35.58;18.10;;;2.40;77.00;;;1.36;69.69;99845.06;5104525;28;20417;-87
2021/03/01 06:22:19;;;;;;;28.52;15.27;;;2.60;76.20;;;1.49;69.10;99851.75;5102705;28;20405;-87
2021/03/01 06:25:01;;;;;;;28.85;15.05;;;2.70;75.20;;;1.69;68.06;99846.56;5106658;28;20432;-85
2021/03/01 06:27:27;;;;;;;34.00;15.68;;;2.90;74.60;;;1.80;67.55;99855.13;5108940;28;20394;-84
2021/03/01 06:30:09;;;;;;;31.40;15.02;;;3.00;73.80;;;1.71;68.17;99855.09;5109405;28;20433;-83
2021/03/01 06:32:37;;;;;;;29.48;14.98;;;3.00;74.10;;;1.76;67.71;99855.50;5091218;28;20474;-86
2021/03/01 06:35:25;;;;;;;27.80;13.95;;;3.00;73.80;;;1.71;67.62;99855.91;5107374;28;20440;-83
2021/03/01 06:38:20;;;;;;;26.33;13.60;;;3.00;73.50;;;1.70;67.14;99858.66;5108483;28;20425;-85
2021/03/01 06:41:16;;;;;;;29.53;15.13;;;3.00;73.30;;;1.71;67.38;99860.31;5108425;28;20497;-85
2021/03/01 06:43:59;;;;;;;44.38;22.20;;;3.00;73.40;;;1.78;67.69;99864.88;5087243;28;20892;-83
2021/03/01 06:46:28;;;;;;;22.70;13.27;;;3.00;73.60;;;1.80;66.66;99860.34;5102771;28;20425;-84
2021/03/01 06:48:55;;;;;;;28.48;14.48;;;3.00;72.90;;;1.84;66.34;99860.88;5107478;28;20479;-84
2021/03/01 06:51:22;;;;;;;23.17;13.85;;;3.10;72.50;;;1.81;66.05;99867.19;5104873;28;20398;-84
2021/03/01 06:53:58;;;;;;;25.70;13.43;;;3.10;72.30;;;1.89;66.21;99863.91;5106745;28;20412;-83
2021/03/01 06:56:38;;;;;;;26.00;13.65;;;3.10;72.40;;;1.89;65.95;99874.34;5089324;28;20425;-86
2021/03/01 06:59:13;;;;;;;29.90;14.57;;;3.10;72.20;;;1.87;66.40;99864.06;5108008;28;20429;-84
2021/03/01 07:01:48;;;;;;;24.52;12.75;;;3.10;72.30;;;1.88;66.26;99870.91;5109614;28;20505;-83
2021/03/01 07:04:26;;;;;;;26.67;13.63;;;3.10;72.30;;;1.89;66.10;99864.72;5110481;28;20447;-83
2021/03/01 07:06:55;;;;;;;30.15;14.95;;;3.10;72.30;;;1.91;66.00;99869.81;5109459;28;20402;-83
2021/03/01 07:09:23;;;;;;;27.65;13.30;;;3.10;72.20;;;1.98;65.75;99862.28;5091305;28;20438;-84
2021/03/01 07:11:50;;;;;;;30.73;13.32;;;3.20;71.80;;;2.14;65.48;99865.19;5111050;28;20409;-83
2021/03/01 07:14:19;;;;;;;28.33;14.00;;;3.30;71.80;;;2.16;65.19;99858.88;5111294;28;20406;-83
2021/03/01 07:16:48;;;;;;;24.43;12.83;;;3.40;71.10;;;2.13;65.01;99863.53;5110667;28;20757;-83
2021/03/01 07:19:17;;;;;;;27.05;13.65;;;3.40;70.90;;;2.13;65.13;99872.19;5106775;28;20417;-84
2021/03/01 07:21:46;;;;;;;29.90;13.90;;;3.40;70.90;;;2.13;64.92;99869.56;5106438;28;20471;-83
2021/03/01 07:24:17;;;;;;;28.38;13.82;;;3.40;71.00;;;2.19;65.21;99879.47;5091930;28;20430;-85
2021/03/01 07:26:45;;;;;;;27.63;14.60;;;3.40;71.10;;;2.20;65.17;99875.09;5107388;28;20457;-84
2021/03/01 07:29:14;;;;;;;25.93;14.00;;;3.40;71.00;;;2.28;65.03;99880.44;5106547;28;20589;-84
2021/03/01 07:31:42;;;;;;;31.70;13.80;;;3.50;71.00;;;2.44;64.93;99878.13;5107418;28;20428;-85
2021/03/01 07:34:10;;;;;;;27.08;14.35;;;3.60;70.90;;;2.44;64.59;99874.69;5107113;28;20503;-84
2021/03/01 07:36:37;;;;;;;30.25;15.55;;;3.60;70.60;;;2.43;64.62;99873.03;5105715;28;20443;-84
2021/03/01 07:39:08;;;;;;;32.57;15.13;;;3.60;70.50;;;2.55;64.26;99882.38;5104867;28;20513;-84
2021/03/01 07:41:35;;;;;;;36.78;16.02;;;3.70;70.50;;;2.54;64.52;99868.50;5088567;28;20406;-84
2021/03/01 07:44:03;;;;;;;31.13;15.13;;;3.70;70.50;;;2.58;64.59;99879.47;5107440;28;20564;-85
2021/03/01 07:46:32;;;;;;;31.00;15.45;;;3.80;70.50;;;2.61;64.65;99869.59;5106848;28;20839;-85
2021/03/01 07:48:59;;;;;;;31.65;15.50;;;3.80;70.40;;;2.69;64.41;99874.94;5107709;28;20482;-85
2021/03/01 07:51:44;;;;;;;32.40;16.35;;;3.90;70.40;;;2.76;64.00;99874.38;5108122;28;20406;-85
2021/03/01 07:54:13;;;;;;;31.25;15.32;;;3.90;70.10;;;2.86;63.77;99867.31;5107894;28;20406;-83
2021/03/01 07:56:45;;;;;;;27.95;15.93;;;4.00;69.80;;;2.87;63.83;99863.75;5109230;28;20758;-83
2021/03/01 07:59:14;;;;;;;30.52;14.57;;;4.00;69.60;;;2.93;63.49;99876.28;5107269;28;20418;-84
2021/03/01 08:01:40;;;;;;;34.22;16.48;;;4.10;69.50;;;2.98;63.35;99871.44;5087734;28;20414;-85
2021/03/01 08:04:34;;;;;;;29.33;16.23;;;4.10;69.20;;;2.99;63.40;99876.53;5105910;28;20425;-84
2021/03/01 08:07:01;;;;;;;37.33;16.27;;;4.10;69.30;;;3.35;62.60;99876.69;5113716;28;20400;-84
2021/03/01 08:09:52;;;;;;;34.15;16.60;;;4.30;69.10;;;3.29;62.45;99877.28;5096126;28;20418;-83
2021/03/01 08:13:01;;;;;;;36.50;17.52;;;4.50;68.50;;;3.33;62.24;99873.38;5113603;28;20394;-84
2021/03/01 08:15:36;;;;;;;35.42;16.10;;;4.50;68.20;;;3.39;61.93;99870.19;5108856;28;20608;-83
2021/03/01 08:18:05;;;;;;;33.83;17.40;;;4.50;67.90;;;3.41;61.71;99871.69;5104602;28;20800;-85
2021/03/01 08:20:56;;;;;;;35.95;16.27;;;4.60;67.70;;;3.45;62.85;99859.16;5108031;28;20489;-85
2021/03/01 08:23:34;;;;;;;31.60;16.90;;;4.60;68.20;;;3.62;61.74;99863.59;5109958;28;20525;-85
2021/03/01 08:26:04;;;;;;;41.15;16.58;;;4.70;67.80;;;3.78;61.65;99855.94;5109644;28;20428;-85
2021/03/01 08:28:54;;;;;;;49.33;17.25;;;4.90;67.60;;;3.94;60.94;99862.31;5109902;28;20413;-85
2021/03/01 08:31:38;;;;;;;34.05;16.77;;;5.10;66.80;;;4.00;60.55;99856.47;5111426;28;20477;-85
2021/03/01 08:34:34;;;;;;;33.35;16.70;;;5.10;66.20;;;4.09;60.07;99859.03;5110208;28;20402;-84
2021/03/01 08:37:03;;;;;;;33.92;14.93;;;5.20;65.80;;;4.12;59.42;99869.25;5110201;28;20417;-86
2021/03/01 08:40:04;;;;;;;36.47;16.55;;;5.30;65.10;;;4.13;59.39;99870.91;5109857;28;20426;-84
2021/03/01 08:42:53;;;;;;;34.87;16.03;;;5.30;65.00;;;4.16;59.41;99873.19;5108836;28;20386;-85
2021/03/01 08:45:32;;;;;;;34.35;16.45;;;5.30;65.00;;;4.05;59.62;99864.75;5114057;28;20633;-85
2021/03/01 08:48:01;;;;;;;46.20;17.88;;;5.20;64.90;;;4.04;59.95;99866.53;5112904;28;20518;-84
2021/03/01 08:50:31;;;;;;;35.83;17.33;;;5.20;65.40;;;4.39;59.13;99875.38;5111589;28;20398;-84
2021/03/01 08:52:57;;;;;;;33.88;16.92;;;5.40;65.20;;;4.36;59.29;99868.63;5108948;28;20406;-84
2021/03/01 08:55:24;;;;;;;31.48;16.95;;;5.50;64.60;;;4.41;59.12;99869.03;5114121;28;20417;-84
2021/03/01 08:58:05;;;;;;;38.50;17.23;;;5.50;64.60;;;4.58;58.77;99860.31;5115775;28;20406;-83
2021/03/01 09:00:33;;;;;;;33.05;17.20;;;5.60;64.40;;;4.62;58.36;99853.78;5109655;28;20419;-83
2021/03/01 09:03:18;;;;;;;45.72;17.75;;;5.70;64.00;;;4.83;57.90;99857.84;5106315;28;20414;-83
2021/03/01 09:05:47;;;;;;;40.50;17.65;;;5.80;63.60;;;4.92;57.75;99852.50;5108724;28;20410;-84
2021/03/01 09:08:14;;;;;;;27.65;16.27;;;6.00;63.10;;;4.92;57.30;99851.69;5106203;28;20418;-84
2021/03/01 09:10:44;;;;;;;32.45;16.92;;;6.10;62.50;;;4.89;57.49;99846.72;5105012;28;20406;-84
2021/03/01 09:13:18;;;;;;;38.97;16.88;;;6.00;62.50;;;4.92;57.38;99854.31;5101709;28;20452;-84
2021/03/01 09:15:48;;;;;;;35.35;15.75;;;6.00;62.60;;;4.96;57.14;99853.03;5107537;28;20409;-86
2021/03/01 09:18:16;;;;;;;40.65;15.98;;;6.10;62.50;;;5.02;56.97;99847.16;5112689;28;20412;-87
2021/03/01 09:20:53;;;;;;;33.80;15.40;;;6.10;62.10;;;5.17;56.76;99850.88;5114638;28;20519;-83
2021/03/01 09:23:45;;;;;;;31.38;15.48;;;6.20;62.20;;;5.22;56.10;99845.97;5112268;28;20444;-85
2021/03/01 09:26:29;;;;;;;31.40;16.08;;;6.30;61.30;;;5.41;55.63;99834.41;5095760;28;20452;-86
2021/03/01 09:28:59;;;;;;;31.43;15.30;;;6.40;61.00;;;5.44;55.82;99837.53;5108154;28;20830;-85
2021/03/01 09:31:26;;;;;;;28.45;13.63;;;6.50;60.60;;;5.44;54.77;99834.06;5085113;28;20679;-82
2021/03/01 09:33:54;;;;;;;26.00;13.93;;;6.50;59.70;;;5.59;54.55;99834.28;5102461;28;20428;-83
2021/03/01 09:36:20;;;;;;;33.67;15.07;;;6.60;59.70;;;5.70;53.99;99837.47;5085385;28;20413;-85
2021/03/01 09:38:51;;;;;;;29.67;15.05;;;6.70;59.20;;;5.83;53.80;99844.88;5086288;28;20414;-86
2021/03/01 09:41:18;;;;;;;31.35;14.32;;;6.80;58.90;;;5.96;53.31;99831.31;5100368;28;20398;-87
2021/03/01 09:43:49;;;;;;;29.02;13.45;;;7.00;58.60;;;6.06;53.27;99837.25;5103483;28;20438;-85
2021/03/01 09:46:18;;;;;;;36.65;14.65;;;7.10;58.40;;;6.19;53.17;99834.97;5103230;28;20421;-86
2021/03/01 09:48:50;;;;;;;31.30;13.93;;;7.20;58.30;;;6.24;52.78;99837.91;5106544;28;20410;-85
2021/03/01 09:51:17;;;;;;;25.40;13.75;;;7.30;57.90;;;6.32;52.38;99845.81;5103781;28;20398;-85
2021/03/01 09:53:44;;;;;;;29.92;16.08;;;7.30;57.50;;;6.40;52.18;99835.28;5100899;28;20413;-85
2021/03/01 09:56:11;;;;;;;26.00;14.82;;;7.40;57.30;;;6.39;52.22;99833.66;5100670;28;20394;-86
2021/03/01 09:58:42;;;;;;;25.27;14.00;;;7.40;57.30;;;6.48;51.70;99832.66;5082034;28;20425;-85
2021/03/01 10:01:14;;;;;;;29.38;13.68;;;7.50;56.90;;;6.63;51.41;99827.56;5097453;28;20413;-85
2021/03/01 10:03:43;;;;;;;22.67;13.18;;;7.60;56.80;;;6.70;50.78;99823.28;5102490;28;20504;-85
2021/03/01 10:06:12;;;;;;;25.27;14.02;;;7.70;56.30;;;6.76;50.45;99822.63;5084794;28;20787;-84
2021/03/01 10:08:40;;;;;;;22.83;12.93;;;7.80;55.90;;;6.88;50.14;99825.72;5101698;28;20421;-84
2021/03/01 10:11:20;;;;;;;22.98;12.27;;;7.90;55.60;;;7.02;49.71;99826.84;5103950;28;20413;-84
2021/03/01 10:13:48;;;;;;;27.77;13.97;;;8.00;55.30;;;7.10;49.68;99818.94;5103707;28;20819;-84
2021/03/01 10:16:27;;;;;;;23.60;12.77;;;8.10;55.00;;;7.22;49.24;99814.94;5101700;28;20398;-85
2021/03/01 10:18:55;;;;;;;25.23;12.90;;;8.20;54.70;;;7.36;48.67;99822.97;5104749;28;20646;-85
2021/03/01 10:21:31;;;;;;;26.27;13.10;;;8.30;54.10;;;7.34;48.09;99819.69;5109653;28;20402;-84
2021/03/01 10:24:04;;;;;;;23.83;12.60;;;8.30;53.40;;;7.42;47.62;99812.72;5112587;28;20418;-83
2021/03/01 10:26:30;;;;;;;19.45;11.93;;;8.40;53.00;;;7.51;47.36;99806.44;5108325;28;20469;-85
2021/03/01 10:28:59;;;;;;;20.95;12.40;;;8.50;52.70;;;7.63;47.25;99810.31;5096538;28;20472;-85
2021/03/01 10:31:32;;;;;;;23.13;12.43;;;8.60;52.40;;;7.71;46.38;99802.38;5094685;28;20398;-84
2021/03/01 10:34:02;;;;;;;21.23;11.10;;;8.70;51.90;;;7.85;45.92;99809.53;5099910;28;20436;-85